Time;durP1;ratioP1;P1;durP2;ratioP2;P2;SDS_P1;SDS_P2;PMS_P1;PMS_P2;Temp;Humidity;BMP_temperature;BMP_pressure;BME280_temperature;BME280_humidity;BME280_pressure;Samples;Min_cycle;Max_cycle;Signal;HPM_P1;HPM_P2
2020/12/28 00:01:51;;;;;;;0.00;0.00;;;14.90;78.70;;;;;;4228062;28;20407;-39
2020/12/28 00:04:12;;;;;;;0.10;0.10;;;14.90;78.60;;;;;;4229329;28;20683;-39
2020/12/28 00:06:33;;;;;;;0.00;0.00;;;14.90;79.00;;;;;;4229128;28;20498;-40
2020/12/28 00:08:54;;;;;;;0.00;0.00;;;14.90;78.80;;;;;;4228633;28;20425;-38
2020/12/28 00:11:16;;;;;;;;;;;14.90;78.60;;;;;;4229069;28;20128;-39
2020/12/28 00:13:37;;;;;;;0.00;0.00;;;14.90;78.90;;;;;;4229613;28;19945;-39
2020/12/28 00:15:57;;;;;;;0.00;0.00;;;14.90;78.70;;;;;;4227234;28;20051;-43
2020/12/28 00:18:18;;;;;;;0.00;0.00;;;14.90;78.80;;;;;;4228667;28;20134;-40
2020/12/28 00:20:39;;;;;;;0.00;0.00;;;14.90;78.80;;;;;;4228783;28;20051;-42
2020/12/28 00:23:00;;;;;;;;;;;14.80;78.70;;;;;;4229967;28;20512;-40
2020/12/28 00:25:23;;;;;;;0.00;0.00;;;14.80;78.70;;;;;;4229172;28;19930;-40
2020/12/28 00:27:45;;;;;;;0.00;0.00;;;14.80;78.60;;;;;;4228778;28;20558;-40
2020/12/28 00:30:06;;;;;;;;;;;14.80;78.90;;;;;;4212430;28;20052;-39
2020/12/28 00:32:27;;;;;;;0.05;0.05;;;14.80;79.00;;;;;;4212203;28;20305;-40
2020/12/28 00:34:48;;;;;;;0.00;0.00;;;14.80;78.80;;;;;;4214069;28;20048;-39
2020/12/28 00:37:09;;;;;;;0.00;0.00;;;14.80;79.70;;;;;;4227661;28;20052;-40
2020/12/28 00:39:30;;;;;;;0.00;0.00;;;14.80;78.90;;;;;;4228752;28;20059;-40
2020/12/28 00:41:52;;;;;;;0.30;0.30;;;14.80;78.90;;;;;;4227513;28;20052;-39
2020/12/28 00:44:13;;;;;;;0.15;0.15;;;14.80;78.90;;;;;;4228267;28;20066;-39
2020/12/28 00:46:34;;;;;;;;;;;14.70;78.90;;;;;;4227772;28;20446;-39
2020/12/28 00:48:55;;;;;;;0.00;0.00;;;14.80;79.20;;;;;;4227700;28;19923;-39
2020/12/28 00:51:18;;;;;;;0.00;0.00;;;14.70;78.90;;;;;;4227382;28;20056;-39
2020/12/28 00:53:42;;;;;;;0.10;0.10;;;14.70;79.10;;;;;;4227668;28;20055;-39
2020/12/28 00:56:05;;;;;;;0.00;0.00;;;14.70;79.00;;;;;;4228703;28;20062;-38
2020/12/28 00:58:28;;;;;;;0.00;0.00;;;14.70;79.20;;;;;;4230783;28;20059;-39
2020/12/28 01:00:56;;;;;;;0.00;0.00;;;14.70;79.30;;;;;;4230852;28;20152;-40
2020/12/28 01:03:17;;;;;;;0.10;0.10;;;14.70;79.20;;;;;;4231838;28;20075;-39
2020/12/28 01:06:07;;;;;;;0.00;0.00;;;14.70;79.40;;;;;;4227533;28;20514;-39
2020/12/28 01:08:30;;;;;;;0.00;0.00;;;14.70;79.50;;;;;;4230289;28;20051;-40
2020/12/28 01:10:52;;;;;;;0.00;0.00;;;14.60;79.40;;;;;;4230454;28;20048;-39
2020/12/28 01:13:14;;;;;;;0.00;0.00;;;14.60;79.50;;;;;;4230568;28;20552;-39
2020/12/28 01:15:44;;;;;;;0.17;0.17;;;14.60;79.60;;;;;;4230966;28;20047;-40
2020/12/28 01:18:10;;;;;;;0.00;0.00;;;14.60;79.90;;;;;;4230888;28;20062;-41
2020/12/28 01:20:41;;;;;;;0.00;0.00;;;14.60;79.80;;;;;;4230447;28;20105;-39
2020/12/28 01:23:06;;;;;;;0.00;0.00;;;14.60;80.00;;;;;;4230558;28;20071;-39
2020/12/28 01:25:38;;;;;;;0.00;0.00;;;14.60;80.00;;;;;;4230124;28;20055;-39
2020/12/28 01:27:59;;;;;;;0.00;0.00;;;14.60;80.00;;;;;;4231428;28;20386;-40
2020/12/28 01:30:24;;;;;;;0.00;0.00;;;14.60;80.00;;;;;;4231239;28;20054;-39
2020/12/28 01:32:47;;;;;;;0.15;0.15;;;14.60;80.00;;;;;;4230494;28;20090;-40
2020/12/28 01:35:36;;;;;;;0.00;0.00;;;14.60;80.20;;;;;;4230491;28;20052;-40
2020/12/28 01:37:58;;;;;;;0.20;0.20;;;14.50;80.00;;;;;;4230594;28;20545;-39
2020/12/28 01:40:19;;;;;;;0.00;0.00;;;14.50;80.20;;;;;;4230464;28;20157;-39
2020/12/28 01:42:41;;;;;;;0.00;0.00;;;14.50;80.20;;;;;;4230322;28;20063;-40
2020/12/28 01:45:01;;;;;;;0.00;0.00;;;14.50;80.30;;;;;;4230711;28;20075;-40
2020/12/28 01:47:26;;;;;;;0.00;0.00;;;14.50;80.40;;;;;;4223047;28;20051;-40
2020/12/28 01:49:50;;;;;;;0.00;0.00;;;14.50;80.40;;;;;;4229672;28;20474;-40
2020/12/28 01:52:11;;;;;;;0.00;0.00;;;14.50;80.60;;;;;;4231095;27;20524;-40
2020/12/28 01:54:32;;;;;;;0.00;0.00;;;14.50;80.60;;;;;;4230886;28;20059;-40
2020/12/28 01:56:55;;;;;;;0.20;0.20;;;14.50;80.60;;;;;;4229795;28;20051;-40
2020/12/28 01:59:23;;;;;;;0.00;0.00;;;14.50;80.70;;;;;;4230558;28;20055;-40
2020/12/28 02:01:46;;;;;;;0.00;0.00;;;14.60;80.40;;;;;;4229407;28;20069;-40
2020/12/28 02:04:11;;;;;;;0.10;0.10;;;14.80;79.90;;;;;;4230096;28;20051;-40
2020/12/28 02:06:55;;;;;;;0.00;0.00;;;14.90;79.40;;;;;;4212829;28;20102;-40
2020/12/28 02:09:20;;;;;;;0.00;0.00;;;14.90;78.80;;;;;;4213259;28;20185;-40
2020/12/28 02:11:41;;;;;;;0.00;0.00;;;14.90;78.70;;;;;;4214271;28;20054;-39
2020/12/28 02:14:03;;;;;;;0.00;0.00;;;15.00;78.60;;;;;;4220059;28;20044;-40
2020/12/28 02:16:47;;;;;;;0.10;0.10;;;15.00;78.40;;;;;;4212463;28;20131;-40
2020/12/28 02:19:13;;;;;;;0.00;0.00;;;14.90;78.40;;;;;;4218099;28;20498;-42
2020/12/28 02:21:40;;;;;;;0.00;0.00;;;14.90;78.50;;;;;;4212668;28;20052;-40
2020/12/28 02:24:06;;;;;;;0.30;0.30;;;14.90;78.60;;;;;;4212617;28;20060;-42
2020/12/28 02:26:31;;;;;;;0.00;0.00;;;14.90;78.70;;;;;;4213625;28;20097;-43
2020/12/28 02:28:52;;;;;;;0.00;0.00;;;14.90;78.80;;;;;;4212933;28;20049;-40
2020/12/28 02:31:14;;;;;;;0.00;0.00;;;14.80;79.00;;;;;;4212920;28;20074;-40
2020/12/28 02:33:56;;;;;;;0.00;0.00;;;14.80;79.00;;;;;;4213587;28;20121;-39
2020/12/28 02:36:22;;;;;;;0.00;0.00;;;14.70;79.20;;;;;;4212722;28;20052;-40
2020/12/28 02:38:44;;;;;;;0.00;0.00;;;14.70;79.40;;;;;;4212616;28;20143;-41
2020/12/28 02:41:06;;;;;;;2.33;0.73;;;14.80;79.20;;;;;;4212306;28;20575;-40
2020/12/28 02:43:47;;;;;;;0.00;0.00;;;15.00;78.40;;;;;;4221081;28;20039;-40
2020/12/28 02:46:27;;;;;;;0.00;0.00;;;15.20;77.50;;;;;;4213331;28;20048;-40
2020/12/28 02:49:07;;;;;;;0.00;0.00;;;15.30;76.80;;;;;;4226877;28;20075;-39
2020/12/28 02:51:47;;;;;;;0.30;0.30;;;15.40;76.50;;;;;;4229848;28;20043;-41
2020/12/28 02:54:28;;;;;;;0.10;0.10;;;15.40;76.20;;;;;;4229400;28;20405;-40
2020/12/28 02:57:07;;;;;;;0.00;0.00;;;15.50;75.70;;;;;;4230061;28;20525;-41
2020/12/28 02:59:47;;;;;;;0.03;0.03;;;15.60;75.50;;;;;;4230449;28;20090;-40
2020/12/28 03:02:27;;;;;;;0.30;0.30;;;15.50;75.30;;;;;;4230415;27;20043;-41
2020/12/28 03:05:07;;;;;;;0.00;0.00;;;15.50;75.40;;;;;;4222653;28;20050;-41
2020/12/28 03:07:47;;;;;;;0.00;0.00;;;15.50;75.60;;;;;;4230053;28;20097;-45
2020/12/28 03:10:27;;;;;;;0.00;0.00;;;15.40;75.80;;;;;;4230358;28;20391;-41
2020/12/28 03:13:07;;;;;;;0.00;0.00;;;15.40;76.10;;;;;;4230027;28;20044;-41
2020/12/28 03:15:47;;;;;;;0.00;0.00;;;15.30;76.40;;;;;;4229892;28;20569;-42
2020/12/28 03:18:34;;;;;;;0.00;0.00;;;15.30;76.70;;;;;;4218871;28;20094;-40
2020/12/28 03:21:14;;;;;;;0.20;0.20;;;15.40;76.30;;;;;;4213221;28;20056;-41
2020/12/28 03:23:54;;;;;;;0.10;0.10;;;15.50;75.70;;;;;;4224864;28;20151;-43
2020/12/28 03:26:51;;;;;;;0.03;0.03;;;15.60;75.00;;;;;;4194097;28;20045;-40
2020/12/28 03:29:31;;;;;;;1.35;0.80;;;15.70;74.80;;;;;;4229468;28;20521;-40
2020/12/28 03:32:11;;;;;;;0.00;0.00;;;15.70;74.40;;;;;;4229404;28;20054;-40
2020/12/28 03:34:50;;;;;;;0.00;0.00;;;15.70;74.40;;;;;;4229461;28;20044;-41
2020/12/28 03:37:30;;;;;;;0.00;0.00;;;15.70;74.60;;;;;;4229434;28;20585;-40
2020/12/28 03:40:10;;;;;;;0.30;0.30;;;15.60;74.70;;;;;;4229896;28;20050;-40
2020/12/28 03:42:51;;;;;;;0.00;0.00;;;15.50;75.00;;;;;;4229638;28;20493;-40
2020/12/28 03:45:31;;;;;;;0.00;0.00;;;15.50;75.30;;;;;;4229253;28;20482;-40
2020/12/28 03:48:11;;;;;;;0.32;0.32;;;15.40;75.50;;;;;;4229223;28;20048;-40
2020/12/28 03:50:51;;;;;;;0.00;0.00;;;15.50;75.70;;;;;;4228936;28;20043;-40
2020/12/28 03:53:31;;;;;;;0.00;0.00;;;15.50;75.20;;;;;;4228836;28;20044;-40
2020/12/28 03:56:11;;;;;;;0.00;0.00;;;15.60;75.10;;;;;;4227019;28;20480;-41
2020/12/28 03:58:52;;;;;;;0.25;0.25;;;15.60;75.00;;;;;;4229126;28;20494;-41
2020/12/28 04:01:33;;;;;;;0.00;0.00;;;15.70;74.80;;;;;;4229199;28;20058;-39
2020/12/28 04:04:32;;;;;;;0.00;0.00;;;15.70;74.40;;;;;;4229099;28;20410;-41
2020/12/28 04:07:12;;;;;;;0.00;0.00;;;15.70;74.30;;;;;;4229568;28;20581;-40
2020/12/28 04:09:52;;;;;;;0.00;0.00;;;15.70;74.20;;;;;;4229239;28;20052;-40
2020/12/28 04:12:32;;;;;;;0.00;0.00;;;15.70;74.30;;;;;;4228043;28;20187;-40
2020/12/28 04:14:53;;;;;;;0.00;0.00;;;15.80;74.10;;;;;;4228757;28;20554;-46
2020/12/28 04:17:14;;;;;;;0.00;0.00;;;15.90;73.30;;;;;;4228858;28;20059;-41
2020/12/28 04:19:36;;;;;;;0.20;0.20;;;16.10;72.80;;;;;;4228862;28;20078;-41
2020/12/28 04:21:57;;;;;;;0.00;0.00;;;16.20;72.20;;;;;;4228992;28;20056;-40
2020/12/28 04:24:17;;;;;;;0.00;0.00;;;16.20;72.10;;;;;;4228736;28;20055;-40
2020/12/28 04:26:38;;;;;;;0.00;0.00;;;16.20;72.20;;;;;;4228446;28;20562;-40
2020/12/28 04:29:00;;;;;;;;;;;16.20;72.10;;;;;;4229279;28;20052;-40
2020/12/28 04:31:21;;;;;;;0.20;0.20;;;16.20;72.00;;;;;;4231415;28;20468;-40
2020/12/28 04:33:42;;;;;;;0.00;0.00;;;16.20;72.00;;;;;;4231799;28;20388;-40
2020/12/28 04:36:03;;;;;;;0.00;0.00;;;16.10;72.10;;;;;;4232246;28;20058;-40
2020/12/28 04:38:24;;;;;;;0.00;0.00;;;16.10;72.20;;;;;;4232169;28;20444;-40
2020/12/28 04:40:45;;;;;;;0.00;0.00;;;16.00;72.50;;;;;;4232673;28;20465;-40
2020/12/28 04:43:11;;;;;;;0.00;0.00;;;16.00;72.70;;;;;;4232618;27;20051;-41
2020/12/28 04:45:32;;;;;;;0.00;0.00;;;16.00;72.90;;;;;;4232640;28;20078;-40
2020/12/28 04:47:55;;;;;;;0.10;0.10;;;16.00;73.10;;;;;;4232523;28;20519;-40
2020/12/28 04:50:16;;;;;;;0.10;0.10;;;15.90;73.30;;;;;;4231815;28;20097;-40
2020/12/28 04:52:41;;;;;;;0.20;0.20;;;15.90;73.30;;;;;;4231817;28;20048;-41
2020/12/28 04:55:02;;;;;;;0.00;0.00;;;15.90;73.30;;;;;;4232114;28;20058;-40
2020/12/28 04:57:23;;;;;;;0.05;0.05;;;15.90;73.30;;;;;;4231664;27;20469;-40
2020/12/28 04:59:43;;;;;;;0.00;0.00;;;15.90;73.50;;;;;;4232024;27;20108;-40
2020/12/28 05:02:06;;;;;;;0.00;0.00;;;15.90;73.30;;;;;;4231906;27;20378;-40
2020/12/28 05:04:28;;;;;;;0.13;0.13;;;16.10;72.80;;;;;;4231789;28;20131;-41
2020/12/28 05:06:57;;;;;;;0.20;0.20;;;16.30;72.00;;;;;;4231581;28;20075;-40
2020/12/28 05:09:17;;;;;;;0.32;0.32;;;16.30;72.30;;;;;;4231677;28;20057;-40
2020/12/28 05:11:40;;;;;;;0.00;0.00;;;16.40;71.50;;;;;;4231790;28;20050;-42
2020/12/28 05:14:02;;;;;;;0.00;0.00;;;16.40;71.30;;;;;;4218771;28;20130;-40
2020/12/28 05:16:23;;;;;;;;;;;16.50;70.70;;;;;;4232522;27;20048;-40
2020/12/28 05:18:51;;;;;;;0.00;0.00;;;16.70;70.10;;;;;;4231729;28;19920;-40
2020/12/28 05:21:23;;;;;;;0.00;0.00;;;16.60;69.70;;;;;;4231631;28;20051;-40
2020/12/28 05:23:44;;;;;;;0.05;0.05;;;16.70;69.80;;;;;;4231887;28;20119;-40
2020/12/28 05:26:06;;;;;;;0.00;0.00;;;16.60;70.10;;;;;;4231511;28;20414;-40
2020/12/28 05:28:28;;;;;;;0.00;0.00;;;16.50;71.30;;;;;;4231234;28;20460;-40
2020/12/28 05:30:50;;;;;;;0.00;0.00;;;16.40;70.70;;;;;;4231455;28;20059;-40
2020/12/28 05:33:12;;;;;;;0.10;0.10;;;16.40;70.90;;;;;;4231029;28;20058;-40
2020/12/28 05:35:33;;;;;;;2.10;0.50;;;16.40;71.20;;;;;;4231398;28;20079;-40
2020/12/28 05:37:57;;;;;;;0.10;0.10;;;16.30;71.40;;;;;;4231010;28;20405;-40
2020/12/28 05:40:18;;;;;;;0.28;0.28;;;16.20;71.80;;;;;;4231252;28;20052;-40
2020/12/28 05:42:49;;;;;;;0.57;0.47;;;16.10;72.10;;;;;;4230376;28;20538;-40
2020/12/28 05:45:10;;;;;;;0.35;0.35;;;16.00;72.50;;;;;;4231510;28;20051;-40
2020/12/28 05:47:31;;;;;;;0.00;0.00;;;16.00;72.80;;;;;;4231269;28;20473;-40
2020/12/28 05:49:52;;;;;;;0.20;0.20;;;16.10;73.30;;;;;;4231196;28;20047;-40
2020/12/28 05:52:14;;;;;;;0.10;0.10;;;16.30;72.80;;;;;;4231033;28;20361;-40
2020/12/28 05:54:37;;;;;;;2.10;1.08;;;16.30;71.70;;;;;;4231348;27;20055;-41
2020/12/28 05:56:59;;;;;;;0.52;0.52;;;16.30;71.60;;;;;;4230953;28;20131;-40
2020/12/28 05:59:21;;;;;;;0.00;0.00;;;16.20;71.60;;;;;;4231359;28;20069;-40
2020/12/28 06:01:44;;;;;;;0.00;0.00;;;16.20;71.90;;;;;;4231171;28;20078;-40
2020/12/28 06:04:08;;;;;;;0.25;0.25;;;16.10;72.20;;;;;;4230671;28;20059;-40
2020/12/28 06:06:29;;;;;;;0.10;0.10;;;16.00;72.70;;;;;;4230897;28;20083;-41
2020/12/28 06:08:51;;;;;;;0.00;0.00;;;15.90;73.00;;;;;;4231025;28;20064;-40
2020/12/28 06:11:13;;;;;;;0.13;0.13;;;15.90;73.30;;;;;;4230891;28;20079;-41
2020/12/28 06:13:34;;;;;;;0.00;0.00;;;15.80;73.70;;;;;;4230770;28;20476;-41
2020/12/28 06:15:59;;;;;;;0.00;0.00;;;15.90;73.80;;;;;;4231275;28;20075;-40
2020/12/28 06:18:20;;;;;;;0.08;0.08;;;16.00;73.10;;;;;;4230788;28;20079;-40
2020/12/28 06:20:41;;;;;;;0.00;0.00;;;16.20;72.10;;;;;;4231166;27;20051;-40
2020/12/28 06:23:05;;;;;;;0.20;0.20;;;16.30;71.40;;;;;;4230281;28;20051;-40
2020/12/28 06:25:26;;;;;;;0.00;0.00;;;16.40;71.00;;;;;;4230204;28;20140;-41
2020/12/28 06:27:48;;;;;;;0.00;0.00;;;16.40;71.00;;;;;;4229127;28;20043;-40
2020/12/28 06:30:11;;;;;;;0.10;0.10;;;16.50;70.70;;;;;;4230810;28;20052;-40
2020/12/28 06:32:32;;;;;;;0.75;0.75;;;16.60;70.30;;;;;;4231058;28;20126;-40
2020/12/28 06:35:00;;;;;;;0.00;0.00;;;16.60;69.80;;;;;;4230584;28;20173;-40
2020/12/28 06:37:26;;;;;;;0.00;0.00;;;16.70;69.60;;;;;;4230009;28;20491;-41
2020/12/28 06:39:56;;;;;;;0.00;0.00;;;16.90;68.80;;;;;;4230404;28;20081;-41
2020/12/28 06:42:20;;;;;;;0.10;0.10;;;17.00;68.40;;;;;;4230493;28;20051;-40
2020/12/28 06:44:43;;;;;;;0.00;0.00;;;17.00;68.20;;;;;;4213416;28;20051;-40
2020/12/28 06:47:16;;;;;;;0.00;0.00;;;17.00;68.20;;;;;;4213395;28;20131;-42
2020/12/28 06:49:41;;;;;;;0.00;0.00;;;16.90;68.30;;;;;;4229998;28;20048;-43
2020/12/28 06:52:02;;;;;;;0.00;0.00;;;16.80;68.80;;;;;;4230028;28;20047;-44
2020/12/28 06:54:23;;;;;;;;;;;16.80;69.40;;;;;;4230576;28;20086;-40
2020/12/28 06:56:45;;;;;;;0.00;0.00;;;16.70;69.30;;;;;;4230084;28;19923;-40
2020/12/28 06:59:06;;;;;;;0.00;0.00;;;16.80;69.20;;;;;;4229879;28;20059;-41
2020/12/28 07:01:29;;;;;;;0.00;0.00;;;16.80;69.20;;;;;;4229869;28;20048;-41
2020/12/28 07:03:50;;;;;;;0.00;0.00;;;16.80;69.40;;;;;;4230333;28;20051;-40
2020/12/28 07:06:11;;;;;;;0.00;0.00;;;16.70;69.70;;;;;;4230458;28;20059;-42
2020/12/28 07:08:33;;;;;;;0.00;0.00;;;16.60;70.10;;;;;;4229443;28;20047;-40
2020/12/28 07:10:58;;;;;;;0.00;0.00;;;16.50;70.80;;;;;;4229912;28;20040;-40
2020/12/28 07:13:19;;;;;;;0.57;0.57;;;16.40;71.50;;;;;;4229416;27;20055;-40
2020/12/28 07:15:40;;;;;;;2.88;2.03;;;16.30;73.10;;;;;;4230099;28;20539;-40
2020/12/28 07:18:06;;;;;;;0.00;0.00;;;16.40;72.70;;;;;;4229681;28;20056;-40
2020/12/28 07:20:26;;;;;;;0.05;0.05;;;16.60;71.80;;;;;;4226061;27;20051;-40
2020/12/28 07:22:47;;;;;;;0.10;0.10;;;16.70;71.30;;;;;;4222425;28;20066;-41
2020/12/28 07:25:11;;;;;;;0.40;0.40;;;16.80;70.90;;;;;;4224267;28;20162;-40
2020/12/28 07:27:33;;;;;;;0.30;0.30;;;16.70;70.90;;;;;;4224618;28;20055;-41
2020/12/28 07:29:54;;;;;;;0.00;0.00;;;16.80;70.70;;;;;;4224846;28;20051;-41
2020/12/28 07:32:18;;;;;;;0.75;0.55;;;16.80;70.80;;;;;;4222050;28;20056;-40
2020/12/28 07:34:40;;;;;;;0.00;0.00;;;16.90;69.30;;;;;;4225789;28;20055;-41
2020/12/28 07:37:02;;;;;;;0.00;0.00;;;16.90;69.00;;;;;;4227651;28;20043;-40
2020/12/28 07:39:23;;;;;;;0.10;0.10;;;16.90;69.20;;;;;;4226664;28;20480;-40
2020/12/28 07:41:45;;;;;;;0.08;0.08;;;16.80;69.30;;;;;;4227887;28;20093;-41
2020/12/28 07:44:05;;;;;;;0.00;0.00;;;16.90;69.20;;;;;;4224092;28;20489;-41
2020/12/28 07:46:49;;;;;;;0.00;0.00;;;17.00;68.70;;;;;;4223931;28;20116;-41
2020/12/28 07:49:15;;;;;;;0.20;0.20;;;17.00;68.40;;;;;;4224990;28;20044;-42
2020/12/28 07:51:40;;;;;;;1.35;0.40;;;16.90;68.40;;;;;;4220080;28;20051;-42
2020/12/28 07:54:08;;;;;;;0.00;0.00;;;16.90;68.80;;;;;;4223764;28;20054;-40
2020/12/28 07:56:39;;;;;;;0.00;0.00;;;16.80;69.10;;;;;;4224332;28;20048;-43
2020/12/28 07:59:43;;;;;;;0.00;0.00;;;16.60;69.50;;;;;;4221863;28;20481;-41
2020/12/28 08:02:18;;;;;;;0.00;0.00;;;16.50;70.20;;;;;;4222937;28;20050;-41
2020/12/28 08:04:39;;;;;;;0.00;0.00;;;16.50;70.70;;;;;;4223358;28;20082;-42
2020/12/28 08:07:00;;;;;;;0.30;0.30;;;16.60;70.20;;;;;;4223283;28;20047;-41
2020/12/28 08:09:22;;;;;;;0.20;0.20;;;16.70;69.40;;;;;;4224234;28;20047;-43
2020/12/28 08:11:45;;;;;;;0.00;0.00;;;16.70;69.00;;;;;;4222457;28;20051;-44
2020/12/28 08:14:09;;;;;;;0.52;0.52;;;16.70;69.00;;;;;;4224557;28;20467;-40
2020/12/28 08:16:30;;;;;;;0.28;0.13;;;16.60;69.00;;;;;;4222654;28;20100;-40
2020/12/28 08:18:53;;;;;;;0.10;0.10;;;16.50;69.40;;;;;;4223466;28;20059;-40
2020/12/28 08:21:14;;;;;;;0.05;0.05;;;16.40;69.80;;;;;;4215117;28;20498;-40
2020/12/28 08:23:37;;;;;;;0.00;0.00;;;16.40;70.50;;;;;;4217023;28;20490;-41
2020/12/28 08:25:57;;;;;;;0.10;0.10;;;16.30;71.00;;;;;;4227165;28;20067;-41
2020/12/28 08:28:19;;;;;;;0.00;0.00;;;16.30;71.20;;;;;;4224479;28;20394;-44
2020/12/28 08:30:41;;;;;;;0.43;0.43;;;16.40;70.70;;;;;;4220215;28;20052;-40
2020/12/28 08:33:02;;;;;;;0.00;0.00;;;16.40;70.40;;;;;;4219245;28;20102;-41
2020/12/28 08:35:27;;;;;;;0.15;0.15;;;16.40;70.30;;;;;;4224217;28;20047;-41
2020/12/28 08:37:49;;;;;;;0.32;0.32;;;16.40;70.40;;;;;;4223175;28;20054;-41
2020/12/28 08:40:17;;;;;;;0.85;0.38;;;16.40;70.40;;;;;;4224006;28;20051;-41
2020/12/28 08:42:38;;;;;;;0.28;0.28;;;16.40;70.40;;;;;;4223624;28;20057;-41
2020/12/28 08:45:00;;;;;;;0.00;0.00;;;16.30;70.60;;;;;;4220277;28;20078;-41
2020/12/28 08:47:25;;;;;;;0.17;0.17;;;16.20;70.90;;;;;;4224069;28;20079;-41
2020/12/28 08:49:48;;;;;;;0.00;0.00;;;16.10;71.30;;;;;;4222155;28;20043;-41
2020/12/28 08:52:10;;;;;;;0.00;0.00;;;16.10;71.70;;;;;;4219816;28;20158;-41
2020/12/28 08:54:31;;;;;;;0.70;0.70;;;15.90;72.10;;;;;;4220046;28;20811;-41
2020/12/28 08:56:54;;;;;;;0.20;0.20;;;15.80;72.50;;;;;;4225907;28;20584;-41
2020/12/28 08:59:15;;;;;;;0.00;0.00;;;15.80;73.00;;;;;;4223680;28;20040;-42
2020/12/28 09:01:36;;;;;;;;;;;15.70;73.40;;;;;;4222417;28;20047;-41
2020/12/28 09:03:57;;;;;;;0.00;0.00;;;15.60;73.80;;;;;;4224477;28;19924;-41
2020/12/28 09:06:18;;;;;;;0.00;0.00;;;15.50;74.20;;;;;;4222362;28;20094;-42
2020/12/28 09:08:39;;;;;;;;;;;15.40;74.60;;;;;;4223853;28;20059;-41
2020/12/28 09:11:00;;;;;;;0.10;0.10;;;15.30;75.00;;;;;;4222680;28;19924;-41
2020/12/28 09:13:23;;;;;;;0.40;0.40;;;15.30;75.50;;;;;;4219361;28;20506;-43
2020/12/28 09:15:44;;;;;;;0.03;0.03;;;15.30;75.40;;;;;;4220012;28;20054;-41
2020/12/28 09:18:05;;;;;;;;;;;15.60;74.30;;;;;;4222156;28;20070;-42
2020/12/28 09:20:27;;;;;;;0.00;0.00;;;15.80;73.00;;;;;;4226131;28;19931;-41
2020/12/28 09:22:48;;;;;;;0.35;0.35;;;16.00;72.50;;;;;;4221172;28;20297;-40
2020/12/28 09:25:09;;;;;;;0.00;0.00;;;16.00;71.80;;;;;;4228171;28;20071;-41
2020/12/28 09:27:30;;;;;;;1.55;0.63;;;16.10;71.80;;;;;;4229184;28;20096;-40
2020/12/28 09:29:52;;;;;;;0.00;0.00;;;16.00;71.80;;;;;;4224363;28;20121;-41
2020/12/28 09:32:13;;;;;;;0.00;0.00;;;16.00;72.10;;;;;;4225490;28;20050;-41
2020/12/28 09:34:35;;;;;;;0.00;0.00;;;15.90;72.50;;;;;;4222196;28;20407;-42
2020/12/28 09:36:59;;;;;;;;;;;15.80;72.80;;;;;;4224072;28;20584;-41
2020/12/28 09:39:21;;;;;;;0.08;0.08;;;15.70;73.20;;;;;;4225834;28;20536;-41
2020/12/28 09:41:42;;;;;;;;;;;15.60;73.60;;;;;;4223814;28;20453;-41
2020/12/28 09:44:03;;;;;;;0.05;0.05;;;15.60;74.10;;;;;;4229167;28;19931;-41
2020/12/28 09:46:25;;;;;;;0.70;0.70;;;15.50;74.30;;;;;;4226965;28;20055;-41
2020/12/28 09:48:47;;;;;;;0.00;0.00;;;15.40;74.70;;;;;;4227466;28;20048;-41
2020/12/28 09:51:08;;;;;;;0.00;0.00;;;15.30;75.00;;;;;;4225512;28;20047;-41
2020/12/28 09:53:29;;;;;;;1.17;0.98;;;15.20;75.30;;;;;;4224889;28;20047;-41
2020/12/28 09:55:50;;;;;;;0.00;0.00;;;15.20;75.60;;;;;;4223555;28;20052;-42
2020/12/28 09:58:11;;;;;;;0.03;0.03;;;15.20;75.70;;;;;;4222233;28;20059;-41
2020/12/28 10:00:32;;;;;;;0.10;0.10;;;15.40;74.70;;;;;;4223932;28;20146;-44
2020/12/28 10:02:54;;;;;;;0.00;0.00;;;15.60;73.80;;;;;;4224930;28;20046;-42
2020/12/28 10:05:16;;;;;;;0.00;0.00;;;15.60;73.00;;;;;;4220558;28;20564;-41
2020/12/28 10:07:37;;;;;;;;;;;15.60;72.70;;;;;;4221872;28;20059;-41
2020/12/28 10:10:00;;;;;;;0.38;0.38;;;15.60;72.40;;;;;;4222348;27;19920;-42
2020/12/28 10:12:21;;;;;;;0.00;0.00;;;15.60;72.20;;;;;;4223274;28;20063;-41
2020/12/28 10:14:43;;;;;;;0.10;0.10;;;15.60;72.00;;;;;;4222074;28;20094;-41
2020/12/28 10:17:04;;;;;;;;;;;15.60;72.30;;;;;;4229641;28;20043;-41
2020/12/28 10:19:26;;;;;;;1.20;1.10;;;15.50;72.30;;;;;;4221276;28;19920;-41
2020/12/28 10:21:49;;;;;;;0.30;0.30;;;15.50;72.80;;;;;;4222852;28;20097;-42
2020/12/28 10:24:10;;;;;;;0.00;0.00;;;15.40;73.00;;;;;;4220918;28;20040;-40
2020/12/28 10:26:31;;;;;;;0.00;0.00;;;15.40;72.70;;;;;;4227159;28;20085;-41
2020/12/28 10:28:54;;;;;;;0.00;0.00;;;15.50;72.20;;;;;;4222975;28;20048;-40
2020/12/28 10:31:16;;;;;;;0.15;0.15;;;15.50;71.80;;;;;;4222081;28;20138;-41
2020/12/28 10:33:58;;;;;;;0.80;0.80;;;15.50;71.80;;;;;;4221176;28;20121;-41
2020/12/28 10:36:21;;;;;;;0.20;0.20;;;15.50;72.00;;;;;;4222710;28;20047;-41
2020/12/28 10:38:43;;;;;;;0.00;0.00;;;15.50;71.90;;;;;;4225648;28;20196;-40
2020/12/28 10:41:05;;;;;;;0.25;0.25;;;15.50;71.70;;;;;;4220906;28;20150;-41
2020/12/28 10:43:26;;;;;;;0.00;0.00;;;15.50;71.20;;;;;;4225798;28;20043;-41
2020/12/28 10:45:47;;;;;;;0.40;0.40;;;15.60;70.70;;;;;;4220711;28;20383;-41
2020/12/28 10:48:08;;;;;;;0.00;0.00;;;15.50;70.30;;;;;;4224503;28;20063;-41
2020/12/28 10:50:30;;;;;;;0.52;0.47;;;15.60;70.30;;;;;;4221751;27;20079;-41
2020/12/28 10:52:52;;;;;;;0.70;0.35;;;15.80;69.40;;;;;;4222366;28;20044;-41
2020/12/28 10:55:13;;;;;;;0.10;0.10;;;15.90;68.70;;;;;;4220628;28;20455;-41
2020/12/28 10:57:34;;;;;;;0.20;0.20;;;15.90;68.40;;;;;;4224391;28;20052;-41
2020/12/28 10:59:55;;;;;;;2.38;0.70;;;15.90;68.50;;;;;;4222022;28;20056;-42
2020/12/28 11:02:16;;;;;;;0.00;0.00;;;15.90;68.70;;;;;;4225898;28;20394;-42
2020/12/28 11:04:37;;;;;;;0.10;0.10;;;15.80;69.10;;;;;;4225922;28;20493;-41
2020/12/28 11:06:58;;;;;;;0.00;0.00;;;15.70;69.50;;;;;;4223384;28;20047;-41
2020/12/28 11:09:20;;;;;;;0.10;0.10;;;15.70;69.90;;;;;;4225533;28;20676;-42
2020/12/28 11:11:41;;;;;;;0.60;0.28;;;15.60;70.30;;;;;;4225227;28;20055;-42
2020/12/28 11:14:02;;;;;;;;;;;15.50;70.60;;;;;;4225075;28;20051;-42
2020/12/28 11:16:26;;;;;;;0.00;0.00;;;15.50;70.90;;;;;;4224167;28;19920;-42
2020/12/28 11:18:48;;;;;;;0.00;0.00;;;15.40;71.40;;;;;;4221657;28;20066;-42
2020/12/28 11:21:10;;;;;;;0.00;0.00;;;15.30;71.70;;;;;;4220823;28;20683;-42
2020/12/28 11:26:15;;;;;;;0.00;0.00;;;15.20;72.40;;;;;;4225879;28;19970;-42
2020/12/28 11:28:36;;;;;;;0.85;0.85;;;15.10;72.80;;;;;;4227615;28;20058;-41
2020/12/28 11:30:57;;;;;;;0.20;0.20;;;15.10;73.20;;;;;;4223100;28;20056;-43
2020/12/28 11:33:18;;;;;;;0.35;0.35;;;15.00;73.40;;;;;;4219192;28;20051;-41
2020/12/28 11:35:39;;;;;;;0.40;0.40;;;15.00;73.70;;;;;;4221828;28;20097;-42
2020/12/28 11:38:00;;;;;;;0.00;0.00;;;14.90;73.90;;;;;;4226809;28;20062;-41
2020/12/28 11:40:21;;;;;;;0.00;0.00;;;14.90;74.10;;;;;;4224092;28;20104;-42
2020/12/28 11:42:44;;;;;;;1.05;0.70;;;14.90;74.40;;;;;;4227113;28;20050;-42
2020/12/28 11:45:08;;;;;;;0.20;0.20;;;14.80;74.60;;;;;;4229258;28;20421;-41
2020/12/28 11:47:29;;;;;;;0.00;0.00;;;14.80;74.80;;;;;;4228973;28;20235;-46
2020/12/28 11:49:50;;;;;;;0.00;0.00;;;14.80;75.10;;;;;;4228170;28;20051;-41
2020/12/28 11:52:12;;;;;;;;;;;15.00;74.70;;;;;;4230121;28;20126;-40
2020/12/28 11:54:33;;;;;;;0.15;0.15;;;15.30;73.70;;;;;;4229430;28;20474;-43
2020/12/28 11:56:54;;;;;;;0.00;0.00;;;15.50;73.60;;;;;;4229129;28;20743;-42
2020/12/28 11:59:16;;;;;;;0.15;0.15;;;15.60;72.50;;;;;;4228746;28;20048;-42
2020/12/28 12:01:37;;;;;;;0.43;0.43;;;15.70;72.20;;;;;;4229192;28;20054;-41
2020/12/28 12:03:58;;;;;;;0.20;0.20;;;15.70;72.10;;;;;;4229119;28;20070;-40
2020/12/28 12:06:21;;;;;;;0.00;0.00;;;15.70;72.10;;;;;;4229136;28;20079;-42
2020/12/28 12:11:20;;;;;;;0.38;0.38;;;15.60;72.50;;;;;;4228923;28;20047;-41
2020/12/28 12:13:41;;;;;;;0.00;0.00;;;15.60;72.70;;;;;;4212759;28;20056;-41
2020/12/28 12:16:03;;;;;;;0.00;0.00;;;15.50;72.80;;;;;;4212724;28;20561;-43
2020/12/28 12:18:24;;;;;;;0.00;0.00;;;15.60;72.80;;;;;;4228857;28;20052;-41
2020/12/28 12:20:45;;;;;;;0.00;0.00;;;15.70;72.40;;;;;;4229432;28;20047;-41
2020/12/28 12:23:07;;;;;;;0.00;0.00;;;15.80;72.10;;;;;;4229563;28;20048;-42
2020/12/28 12:25:28;;;;;;;0.73;0.73;;;15.80;72.10;;;;;;4212092;28;20060;-41
2020/12/28 12:27:49;;;;;;;0.43;0.43;;;15.80;72.10;;;;;;4212067;28;20426;-42
2020/12/28 12:30:10;;;;;;;0.03;0.03;;;15.80;72.10;;;;;;4212044;28;20060;-41
2020/12/28 12:32:32;;;;;;;0.73;0.73;;;15.70;72.30;;;;;;4225409;28;20425;-41
2020/12/28 12:34:53;;;;;;;0.20;0.20;;;15.70;72.60;;;;;;4228987;28;20055;-42
2020/12/28 12:37:15;;;;;;;0.32;0.32;;;15.60;72.90;;;;;;4229397;28;20051;-42
2020/12/28 12:39:36;;;;;;;0.70;0.70;;;15.60;73.00;;;;;;4226307;28;20059;-42
2020/12/28 12:41:57;;;;;;;0.57;0.57;;;15.60;73.30;;;;;;4228804;28;20452;-40
2020/12/28 12:44:18;;;;;;;0.10;0.10;;;15.50;73.40;;;;;;4228816;28;20132;-41